Westwood Rainier — C6SI3 — position and weather

sailwx.info

Track history (hours):
 
Tides and Currents Weather Stations Pressure Air Temp Water Temp Dewpoint Dewpoint Depression Visibility Wind Speed Wind Dir Waves Ship Positions

Westwood Rainier

Last reported at 2014-Jul-30 19:00 UTC. Time now 2014-Aug-01 13:52 UTC.
Position N 53°48' W 175°36'.

Type: Cargo ship. MMSI: 311348993.

Wind from 140 at 30 knots

Waves 2.5 meters (8 feet), 6 second period

Barometer 1018.1 mb
Air temperature 12.1 ° C
Visibility: greater than 0.0 NM
Dewpoint 10.2 ° C
Water temperature 11.1 ° C

Date/timePositionNaut miles runAvg speedWind from/ knotsBaromVisibWave heightAir tempDewpointWater temp
2014-Jul-30 19:00N 53°48' W 175°36'   140 / 301018.1 0.0 2.512.110.211.1
2014-Jul-28 11:00N 48°48' E 164°36'6613.3 130 / 251000.1 0.0 3.511.111.110.1
2014-Jul-28 06:00N 48°12' E 163°12'15113.8 140 / 191001.5 0.5 13.013.0
2014-Jul-27 19:00N 46°54' E 160°00'10615.1 140 / 201001.7 0.5 13.011.1
2014-Jul-27 12:00N 45°54' E 157°54'6913.8 120 / 181002.1 0.0 2.013.111.214.1
2014-Jul-27 07:00N 45°12' E 156°36'10813.5 150 / 141002.8 2.2 15.013.2
2014-Jul-26 23:00N 44°06' E 154°36'7414.8 070 / 61006.1 0.0 2.015.113.314.1
2014-Jul-26 18:00N 43°18' E 153°18'33514.6 190 / 61006.6 2.2 15.013.2
2014-Jul-25 19:00N 39°42' E 147°36'11415.0 260 / 121011.1 0.0 20.020.0
2014-Jul-25 11:24N 38°24' E 145°49'15813.8
2014-Jul-25 00:00N 36°36' E 143°24'3815.1 160 / 101010.1 0.0 1.024.121.124.1
2014-Jul-24 21:27N 36°15' E 142°44'1416.2
2014-Jul-24 20:33N 36°07' E 142°29'1616.2
2014-Jul-24 19:33N 35°58' E 142°12'1716.3
2014-Jul-24 18:32N 35°49' E 141°56'1717.0
2014-Jul-24 17:33N 35°40' E 141°38'1817.5
2014-Jul-24 16:33N 35°30' E 141°21'1817.9
2014-Jul-24 15:34N 35°19' E 141°03'2017.3
2014-Jul-24 14:24N 35°08' E 140°42'1416.8
2014-Jul-24 13:33N 35°00' E 140°28'1717.3
2014-Jul-24 12:34N 34°50' E 140°11'1615.8
2014-Jul-24 11:33N 34°50' E 139°51'1313.1
2014-Jul-24 10:34N 34°58' E 139°39'1313.3
2014-Jul-24 09:33N 35°10' E 139°46'1111.2
2014-Jul-24 08:33N 35°21' E 139°42'1313.5
2014-Jul-24 07:34N 35°33' E 139°51'5 4.5
2014-Jul-24 06:29N 35°36' E 139°47'0 0.0
2014-Jul-24 05:29N 35°36' E 139°47'0 0.0
2014-Jul-24 04:32N 35°36' E 139°47'0 0.0
2014-Jul-24 03:32N 35°36' E 139°47'0 0.0
2014-Jul-24 02:29N 35°36' E 139°47'0 0.0
2014-Jul-24 01:32N 35°36' E 139°47'0 0.0
2014-Jul-24 00:32N 35°36' E 139°47'0 0.0
2014-Jul-23 23:32N 35°36' E 139°47'3 2.7
2014-Jul-23 22:33N 35°34' E 139°49'9 9.5
2014-Jul-23 21:33N 35°25' E 139°47'1010.3
2014-Jul-23 20:33N 35°15' E 139°47'10 9.6
2014-Jul-23 19:34N 35°05' E 139°45'9 8.9
2014-Jul-23 18:34N 34°57' E 139°42'1515.0
2014-Jul-23 17:34N 34°43' E 139°34'1816.5
2014-Jul-23 16:29N 34°34' E 139°15'4410.9
2014-Jul-23 12:28N 35°00' E 138°33'3 2.5
2014-Jul-23 11:22N 35°02' E 138°30'0 0.0
2014-Jul-23 10:16N 35°02' E 138°30'0 0.0
2014-Jul-23 09:16N 35°02' E 138°30'0 0.0
2014-Jul-23 06:33N 35°02' E 138°30'7 7.2
2014-Jul-23 05:31N 34°55' E 138°35'193 5.5
2014-Jul-21 18:32N 33°50' E 134°55'1515.0
2014-Jul-21 17:33N 34°04' E 134°56'1414.2
2014-Jul-21 16:34N 34°19' E 134°59'1515.4
2014-Jul-21 15:33N 34°31' E 135°10'1313.5
2014-Jul-21 14:33N 34°37' E 135°24'0 0.4
2014-Jul-21 13:30N 34°38' E 135°25'0 0.0
2014-Jul-21 12:30N 34°38' E 135°25'0 0.0
2014-Jul-21 11:30N 34°38' E 135°25'0 0.0
2014-Jul-21 10:18N 34°38' E 135°25'0 0.0
2014-Jul-21 09:30N 34°38' E 135°25'0 0.0
2014-Jul-21 08:18N 34°38' E 135°25'0 0.0
2014-Jul-21 07:24N 34°38' E 135°25'0 0.0
2014-Jul-21 06:30N 34°38' E 135°25'0 0.0
2014-Jul-21 05:12N 34°38' E 135°25'0 0.0
2014-Jul-21 04:24N 34°38' E 135°25'0 0.0
2014-Jul-21 03:30N 34°38' E 135°25'0 0.0
2014-Jul-21 02:30N 34°38' E 135°25'0 0.0
2014-Jul-21 01:30N 34°38' E 135°25'0 0.0
2014-Jul-21 00:24N 34°38' E 135°25'0 0.0
2014-Jul-20 23:30N 34°38' E 135°25'0 0.0
2014-Jul-20 22:30N 34°38' E 135°25'1 1.1
2014-Jul-20 21:33N 34°38' E 135°24'10 9.9
2014-Jul-20 20:33N 34°32' E 135°14'1514.8
2014-Jul-20 19:33N 34°21' E 135°02'  
Track history (hours):
 
Tides and Currents Weather Stations Pressure Air Temp Water Temp Dewpoint Dewpoint Depression Visibility Wind Speed Wind Dir Waves Ship Positions

Westwood Rainier

Last reported at 2014-Jul-30 19:00 UTC. Time now 2014-Aug-01 13:52 UTC.
Position N 53°48' W 175°36'.

Type: Cargo ship. MMSI: 311348993.

Wind from 140 at 30 knots

Waves 2.5 meters (8 feet), 6 second period

Barometer 1018.1 mb
Air temperature 12.1 ° C
Visibility: greater than 0.0 NM
Dewpoint 10.2 ° C
Water temperature 11.1 ° C

Date/timePositionNaut miles runAvg speedWind from/ knotsBaromVisibWave heightAir tempDewpointWater temp
2014-Jul-30 19:00N 53°48' W 175°36'   140 / 301018.1 0.0 2.512.110.211.1
2014-Jul-28 11:00N 48°48' E 164°36'6613.3 130 / 251000.1 0.0 3.511.111.110.1
2014-Jul-28 06:00N 48°12' E 163°12'15113.8 140 / 191001.5 0.5 13.013.0
2014-Jul-27 19:00N 46°54' E 160°00'10615.1 140 / 201001.7 0.5 13.011.1
2014-Jul-27 12:00N 45°54' E 157°54'6913.8 120 / 181002.1 0.0 2.013.111.214.1
2014-Jul-27 07:00N 45°12' E 156°36'10813.5 150 / 141002.8 2.2 15.013.2
2014-Jul-26 23:00N 44°06' E 154°36'7414.8 070 / 61006.1 0.0 2.015.113.314.1
2014-Jul-26 18:00N 43°18' E 153°18'33514.6 190 / 61006.6 2.2 15.013.2
2014-Jul-25 19:00N 39°42' E 147°36'11415.0 260 / 121011.1 0.0 20.020.0
2014-Jul-25 11:24N 38°24' E 145°49'15813.8
2014-Jul-25 00:00N 36°36' E 143°24'3815.1 160 / 101010.1 0.0 1.024.121.124.1
2014-Jul-24 21:27N 36°15' E 142°44'1416.2
2014-Jul-24 20:33N 36°07' E 142°29'1616.2
2014-Jul-24 19:33N 35°58' E 142°12'1716.3
2014-Jul-24 18:32N 35°49' E 141°56'1717.0
2014-Jul-24 17:33N 35°40' E 141°38'1817.5
2014-Jul-24 16:33N 35°30' E 141°21'1817.9
2014-Jul-24 15:34N 35°19' E 141°03'2017.3
2014-Jul-24 14:24N 35°08' E 140°42'1416.8
2014-Jul-24 13:33N 35°00' E 140°28'1717.3
2014-Jul-24 12:34N 34°50' E 140°11'1615.8
2014-Jul-24 11:33N 34°50' E 139°51'1313.1
2014-Jul-24 10:34N 34°58' E 139°39'1313.3
2014-Jul-24 09:33N 35°10' E 139°46'1111.2
2014-Jul-24 08:33N 35°21' E 139°42'1313.5
2014-Jul-24 07:34N 35°33' E 139°51'5 4.5
2014-Jul-24 06:29N 35°36' E 139°47'0 0.0
2014-Jul-24 05:29N 35°36' E 139°47'0 0.0
2014-Jul-24 04:32N 35°36' E 139°47'0 0.0
2014-Jul-24 03:32N 35°36' E 139°47'0 0.0
2014-Jul-24 02:29N 35°36' E 139°47'0 0.0
2014-Jul-24 01:32N 35°36' E 139°47'0 0.0
2014-Jul-24 00:32N 35°36' E 139°47'0 0.0
2014-Jul-23 23:32N 35°36' E 139°47'3 2.7
2014-Jul-23 22:33N 35°34' E 139°49'9 9.5
2014-Jul-23 21:33N 35°25' E 139°47'1010.3
2014-Jul-23 20:33N 35°15' E 139°47'10 9.6
2014-Jul-23 19:34N 35°05' E 139°45'9 8.9
2014-Jul-23 18:34N 34°57' E 139°42'1515.0
2014-Jul-23 17:34N 34°43' E 139°34'1816.5
2014-Jul-23 16:29N 34°34' E 139°15'4410.9
2014-Jul-23 12:28N 35°00' E 138°33'3 2.5
2014-Jul-23 11:22N 35°02' E 138°30'0 0.0
2014-Jul-23 10:16N 35°02' E 138°30'0 0.0
2014-Jul-23 09:16N 35°02' E 138°30'0 0.0
2014-Jul-23 06:33N 35°02' E 138°30'7 7.2
2014-Jul-23 05:31N 34°55' E 138°35'193 5.5
2014-Jul-21 18:32N 33°50' E 134°55'1515.0
2014-Jul-21 17:33N 34°04' E 134°56'1414.2
2014-Jul-21 16:34N 34°19' E 134°59'1515.4
2014-Jul-21 15:33N 34°31' E 135°10'1313.5
2014-Jul-21 14:33N 34°37' E 135°24'0 0.4
2014-Jul-21 13:30N 34°38' E 135°25'0 0.0
2014-Jul-21 12:30N 34°38' E 135°25'0 0.0
2014-Jul-21 11:30N 34°38' E 135°25'0 0.0
2014-Jul-21 10:18N 34°38' E 135°25'0 0.0
2014-Jul-21 09:30N 34°38' E 135°25'0 0.0
2014-Jul-21 08:18N 34°38' E 135°25'0 0.0
2014-Jul-21 07:24N 34°38' E 135°25'0 0.0
2014-Jul-21 06:30N 34°38' E 135°25'0 0.0
2014-Jul-21 05:12N 34°38' E 135°25'0 0.0
2014-Jul-21 04:24N 34°38' E 135°25'0 0.0
2014-Jul-21 03:30N 34°38' E 135°25'0 0.0
2014-Jul-21 02:30N 34°38' E 135°25'0 0.0
2014-Jul-21 01:30N 34°38' E 135°25'0 0.0
2014-Jul-21 00:24N 34°38' E 135°25'0 0.0
2014-Jul-20 23:30N 34°38' E 135°25'0 0.0
2014-Jul-20 22:30N 34°38' E 135°25'1 1.1
2014-Jul-20 21:33N 34°38' E 135°24'10 9.9
2014-Jul-20 20:33N 34°32' E 135°14'1514.8
2014-Jul-20 19:33N 34°21' E 135°02'  

Dump ship's entire track history